Time;durP1;ratioP1;P1;durP2;ratioP2;P2;SDS_P1;SDS_P2;PMS_P1;PMS_P2;Temp;Humidity;BMP_temperature;BMP_pressure;BME280_temperature;BME280_humidity;BME280_pressure;Samples;Min_cycle;Max_cycle;Signal;HPM_P1;HPM_P2
2021/10/09 00:00:10;;;;;;;;;51.25;45.00;12.90;59.00;;;;;;4856525;29;8820;-69
2021/10/09 00:02:37;;;;;;;;;57.75;49.50;12.90;58.90;;;;;;4851229;29;9724;-70
2021/10/09 00:05:05;;;;;;;;;60.50;48.50;12.80;58.70;;;;;;4845370;29;8828;-70
2021/10/09 00:07:31;;;;;;;;;59.25;50.75;12.70;59.30;;;;;;4846087;29;8839;-71
2021/10/09 00:10:02;;;;;;;;;57.00;48.50;12.70;59.40;;;;;;4846068;29;8819;-69
2021/10/09 00:12:30;;;;;;;;;38.50;37.25;12.70;59.00;;;;;;4846276;29;8803;-69
2021/10/09 00:14:56;;;;;;;;;28.50;28.50;12.80;58.90;;;;;;4860032;29;8851;-70
2021/10/09 00:17:24;;;;;;;;;30.00;30.00;12.90;58.80;;;;;;4864353;29;8893;-70
2021/10/09 00:19:51;;;;;;;;;30.25;29.50;12.90;58.50;;;;;;4856539;29;8820;-70
2021/10/09 00:22:17;;;;;;;;;36.75;36.25;12.80;58.70;;;;;;4858507;29;8852;-70
2021/10/09 00:24:42;;;;;;;;;38.25;37.25;12.90;59.10;;;;;;4845819;29;8811;-69
2021/10/09 00:27:08;;;;;;;;;48.00;42.50;13.00;58.80;;;;;;4845759;29;8936;-69
2021/10/09 00:29:34;;;;;;;;;63.75;52.50;12.90;58.30;;;;;;4845675;29;8800;-69
2021/10/09 00:32:00;;;;;;;;;48.00;41.25;13.00;58.70;;;;;;4845952;29;8818;-70
2021/10/09 00:34:26;;;;;;;;;54.00;46.00;12.90;58.50;;;;;;4845535;29;8796;-70
2021/10/09 00:36:52;;;;;;;;;58.00;49.00;13.00;58.40;;;;;;4848005;29;8823;-69
2021/10/09 00:39:18;;;;;;;;;76.75;63.50;12.90;58.80;;;;;;4855667;29;8966;-70
2021/10/09 00:41:44;;;;;;;;;72.00;59.00;12.90;58.40;;;;;;4862754;29;8798;-69
2021/10/09 00:44:19;;;;;;;;;68.50;56.75;13.00;58.90;;;;;;4845664;29;9475;-70
2021/10/09 00:46:46;;;;;;;;;64.50;54.50;13.00;58.50;;;;;;4854532;29;8845;-70
2021/10/09 00:49:15;;;;;;;;;56.50;48.00;13.10;58.40;;;;;;4863850;29;9452;-70
2021/10/09 00:51:47;;;;;;;;;45.75;40.50;13.00;58.20;;;;;;4863729;29;8822;-71
2021/10/09 00:54:18;;;;;;;;;56.25;48.25;13.10;58.10;;;;;;4863339;29;8880;-71
2021/10/09 00:56:46;;;;;;;;;82.00;69.25;13.10;58.40;;;;;;4844954;29;8836;-69
2021/10/09 00:59:13;;;;;;;;;85.50;75.50;12.90;58.40;;;;;;4845401;29;8816;-69
2021/10/09 01:01:41;;;;;;;;;84.75;76.25;13.10;58.90;;;;;;4845089;29;8792;-71
2021/10/09 01:04:08;;;;;;;;;78.50;63.75;13.20;58.50;;;;;;4845032;29;8804;-70
2021/10/09 01:06:34;;;;;;;;;74.25;61.25;13.20;58.20;;;;;;4844989;29;9032;-70
2021/10/09 01:09:04;;;;;;;;;80.75;65.75;13.20;58.20;;;;;;4844996;29;8902;-71
2021/10/09 01:11:30;;;;;;;;;66.25;54.75;13.20;58.40;;;;;;4845012;29;8796;-70
2021/10/09 01:13:56;;;;;;;;;60.00;51.75;13.20;58.50;;;;;;4849069;29;8805;-70
2021/10/09 01:16:24;;;;;;;;;33.00;32.75;13.50;58.60;;;;;;4863233;29;8868;-70
2021/10/09 01:18:52;;;;;;;;;25.75;25.75;13.50;57.90;;;;;;4863419;29;8826;-70
2021/10/09 01:21:19;;;;;;;;;13.67;13.67;13.40;57.80;;;;;;4863338;29;8801;-71
2021/10/09 01:23:45;;;;;;;;;21.00;21.00;13.50;58.20;;;;;;4863236;29;8785;-70
2021/10/09 01:26:11;;;;;;;;;29.50;29.25;13.30;58.40;;;;;;4863439;29;8833;-70
2021/10/09 01:28:40;;;;;;;;;37.50;36.50;13.50;58.10;;;;;;4863563;29;8850;-71
2021/10/09 01:31:06;;;;;;;;;30.25;30.25;13.40;58.20;;;;;;4863096;29;8817;-70
2021/10/09 01:33:31;;;;;;;;;24.00;24.00;13.40;58.40;;;;;;4863333;29;8809;-70
2021/10/09 01:35:57;;;;;;;;;34.00;32.50;13.40;58.20;;;;;;4863013;29;8793;-69
2021/10/09 01:38:26;;;;;;;;;37.75;36.25;13.20;58.00;;;;;;4863255;29;8877;-70
2021/10/09 01:40:53;;;;;;;;;46.25;42.25;13.20;58.50;;;;;;4863209;29;8782;-70
2021/10/09 01:43:20;;;;;;;;;48.00;40.25;13.10;58.90;;;;;;4862908;29;8785;-70
2021/10/09 01:45:47;;;;;;;;;54.50;47.25;13.10;59.10;;;;;;4862780;29;8857;-71
2021/10/09 01:48:14;;;;;;;;;62.50;51.25;13.10;59.30;;;;;;4863008;29;9488;-70
2021/10/09 01:50:41;;;;;;;;;71.00;59.00;13.20;58.70;;;;;;4862716;29;8785;-70
2021/10/09 01:53:08;;;;;;;;;79.00;63.25;13.20;58.60;;;;;;4862734;29;8814;-70
2021/10/09 01:55:35;;;;;;;;;66.25;55.00;13.00;58.30;;;;;;4862899;29;8785;-69
2021/10/09 01:58:01;;;;;;;;;74.25;60.50;13.10;58.70;;;;;;4862472;29;8872;-69
2021/10/09 02:00:27;;;;;;;;;72.75;59.00;12.90;58.30;;;;;;4862615;29;8801;-70
2021/10/09 02:02:54;;;;;;;;;59.75;50.25;12.80;58.50;;;;;;4862846;29;9532;-69
2021/10/09 02:05:20;;;;;;;;;63.75;54.25;12.70;58.80;;;;;;4862552;29;8782;-69
2021/10/09 02:07:46;;;;;;;;;65.00;53.25;12.70;58.90;;;;;;4862406;29;9535;-69
2021/10/09 02:10:14;;;;;;;;;76.50;61.75;12.70;59.00;;;;;;4862694;29;8813;-70
2021/10/09 02:12:41;;;;;;;;;55.75;47.25;12.70;58.90;;;;;;4862461;29;8817;-69
2021/10/09 02:15:17;;;;;;;;;69.75;57.00;12.50;59.40;;;;;;4849112;29;8800;-70
2021/10/09 02:25:45;;;;;;;;;79.00;67.00;12.60;59.50;;;;;;4862097;29;8765;-70
2021/10/09 02:28:31;;;;;;;;;70.00;56.00;12.50;59.40;;;;;;4861992;29;8951;-70
2021/10/09 02:30:57;;;;;;;;;70.50;57.25;12.60;60.00;;;;;;4861885;29;8817;-69
2021/10/09 02:33:23;;;;;;;;;68.75;56.25;12.50;59.90;;;;;;4862382;29;8808;-68
2021/10/09 02:35:48;;;;;;;;;64.25;53.75;12.60;59.90;;;;;;4862057;29;8789;-70
2021/10/09 02:38:15;;;;;;;;;56.25;47.50;12.60;59.60;;;;;;4862359;29;8808;-70
2021/10/09 02:40:42;;;;;;;;;54.75;47.25;12.50;59.50;;;;;;4862042;29;8797;-69
2021/10/09 02:43:08;;;;;;;;;77.50;63.50;12.70;60.10;;;;;;4861993;29;8969;-69
2021/10/09 02:45:34;;;;;;;;;70.50;58.00;12.50;59.70;;;;;;4861932;29;8797;-69
2021/10/09 02:48:02;;;;;;;;;74.00;59.75;12.50;59.60;;;;;;4862059;29;8802;-69
2021/10/09 02:50:29;;;;;;;;;78.00;63.75;12.50;60.00;;;;;;4861909;29;9483;-69
2021/10/09 02:52:56;;;;;;;;;63.25;53.75;12.50;59.70;;;;;;4861972;29;8824;-71
2021/10/09 02:55:22;;;;;;;;;66.00;54.00;12.40;59.80;;;;;;4862191;29;8781;-67
2021/10/09 02:57:48;;;;;;;;;87.00;75.50;12.40;60.20;;;;;;4861731;29;9535;-71
2021/10/09 03:00:15;;;;;;;;;69.00;57.25;12.40;60.10;;;;;;4862107;29;8801;-68
2021/10/09 03:02:41;;;;;;;;;70.75;58.00;12.50;60.30;;;;;;4862136;29;8801;-69
2021/10/09 03:05:08;;;;;;;;;52.00;44.75;12.70;59.80;;;;;;4862037;29;9440;-69
2021/10/09 03:07:34;;;;;;;;;40.00;38.00;12.60;60.00;;;;;;4861735;29;8841;-69
2021/10/09 03:10:00;;;;;;;;;35.75;34.50;12.50;59.80;;;;;;4861782;29;8785;-70
2021/10/09 03:12:26;;;;;;;;;23.00;22.33;12.40;59.50;;;;;;4862034;29;9525;-70
2021/10/09 03:14:52;;;;;;;;;23.00;23.00;12.40;59.50;;;;;;4861625;29;8813;-69
2021/10/09 03:17:18;;;;;;;;;44.75;40.50;12.30;60.10;;;;;;4861782;29;8798;-69
2021/10/09 03:19:44;;;;;;;;;43.50;40.00;12.20;60.30;;;;;;4861495;29;8824;-70
2021/10/09 03:22:10;;;;;;;;;41.00;39.00;12.40;60.10;;;;;;4861727;29;8809;-71
2021/10/09 03:24:36;;;;;;;;;68.75;56.25;12.50;59.50;;;;;;4861648;29;8904;-69
2021/10/09 03:27:02;;;;;;;;;69.00;56.50;12.50;59.60;;;;;;4861752;29;8937;-69
2021/10/09 03:29:28;;;;;;;;;73.00;57.25;12.30;59.90;;;;;;4861943;29;8805;-72
2021/10/09 03:31:53;;;;;;;;;61.50;52.25;12.40;59.90;;;;;;4861965;29;9613;-71
2021/10/09 03:34:19;;;;;;;;;72.75;59.50;12.40;59.70;;;;;;4861651;29;8781;-69
2021/10/09 03:36:46;;;;;;;;;67.50;57.00;12.40;59.70;;;;;;4859922;29;8839;-70
2021/10/09 03:39:15;;;;;;;;;52.50;45.25;12.40;59.70;;;;;;4856322;29;8832;-70
2021/10/09 03:41:47;;;;;;;;;50.25;44.50;12.50;59.30;;;;;;4861575;29;8912;-70
2021/10/09 03:44:13;;;;;;;;;46.00;42.25;12.60;59.90;;;;;;4865149;29;8885;-70
2021/10/09 03:46:56;;;;;;;;;45.25;40.75;12.40;59.40;;;;;;4865131;29;8841;-69
2021/10/09 03:49:35;;;;;;;;;46.75;39.25;12.60;59.30;;;;;;4865053;29;8794;-69
2021/10/09 03:54:45;;;;;;;;;49.75;44.00;12.40;59.00;;;;;;4864894;29;8773;-69
2021/10/09 03:57:11;;;;;;;;;43.75;39.50;12.60;59.50;;;;;;4864757;29;8880;-70
2021/10/09 03:59:37;;;;;;;;;58.50;48.25;12.60;59.00;;;;;;4864711;29;9429;-69
2021/10/09 04:02:03;;;;;;;;;47.00;42.00;12.60;59.30;;;;;;4864717;29;8802;-69
2021/10/09 04:04:29;;;;;;;;;52.50;45.25;12.50;59.10;;;;;;4864718;29;8793;-70
2021/10/09 04:06:55;;;;;;;;;54.50;46.50;12.60;58.90;;;;;;4864610;29;8888;-71
2021/10/09 04:09:21;;;;;;;;;64.50;53.50;12.70;59.00;;;;;;4864803;29;8809;-69
2021/10/09 04:11:46;;;;;;;;;62.50;51.25;12.70;58.50;;;;;;4864523;29;8778;-70
2021/10/09 04:14:12;;;;;;;;;77.75;64.25;12.80;58.80;;;;;;4864373;29;8817;-70
2021/10/09 04:16:38;;;;;;;;;82.25;68.75;12.70;58.80;;;;;;4864624;29;8814;-70
2021/10/09 04:19:04;;;;;;;;;75.25;60.75;12.70;59.00;;;;;;4864463;29;8805;-70
2021/10/09 04:21:30;;;;;;;;;80.00;65.50;12.70;58.90;;;;;;4864432;29;8827;-70
2021/10/09 04:23:56;;;;;;;;;77.00;64.25;12.60;59.30;;;;;;4864600;29;8947;-69
2021/10/09 04:26:22;;;;;;;;;70.50;56.00;12.70;59.10;;;;;;4864116;29;8924;-71
2021/10/09 04:28:48;;;;;;;;;66.75;55.50;12.60;58.70;;;;;;4864317;29;8806;-69
2021/10/09 04:31:14;;;;;;;;;64.25;53.25;12.70;59.40;;;;;;4864130;29;8806;-67
2021/10/09 04:33:39;;;;;;;;;54.00;45.25;12.70;59.30;;;;;;4864113;29;8801;-67
2021/10/09 04:36:07;;;;;;;;;44.75;41.25;12.70;58.90;;;;;;4864282;29;8797;-67
2021/10/09 04:38:33;;;;;;;;;56.75;46.75;12.80;59.00;;;;;;4863682;29;8869;-68
2021/10/09 04:40:59;;;;;;;;;49.25;43.25;12.80;59.10;;;;;;4864239;29;8807;-66
2021/10/09 04:43:25;;;;;;;;;65.25;54.75;12.90;58.70;;;;;;4864322;29;8787;-64
2021/10/09 04:45:50;;;;;;;;;72.00;59.25;12.80;58.60;;;;;;4864067;29;8822;-67
2021/10/09 04:48:16;;;;;;;;;75.75;61.50;13.00;58.10;;;;;;4863889;29;8803;-69
2021/10/09 04:50:42;;;;;;;;;66.75;55.75;12.90;58.00;;;;;;4863091;29;8806;-70
2021/10/09 04:53:08;;;;;;;;;77.75;63.75;12.80;58.40;;;;;;4863760;29;8939;-69
2021/10/09 04:55:33;;;;;;;;;70.75;57.25;12.80;58.80;;;;;;4863710;29;8836;-69
2021/10/09 04:57:59;;;;;;;;;58.25;50.00;12.70;59.00;;;;;;4861995;29;8856;-68
2021/10/09 05:00:25;;;;;;;;;48.00;40.25;12.70;58.80;;;;;;4863627;29;8884;-68
2021/10/09 05:02:51;;;;;;;;;26.00;26.00;12.80;58.60;;;;;;4863640;29;8801;-68
2021/10/09 05:05:17;;;;;;;;;24.25;24.25;12.70;58.40;;;;;;4863662;29;8912;-67
2021/10/09 05:07:42;;;;;;;;;24.50;24.50;12.70;58.50;;;;;;4863400;29;8928;-67
2021/10/09 05:10:09;;;;;;;;;30.75;30.75;12.80;58.80;;;;;;4863464;29;8805;-68
2021/10/09 05:12:36;;;;;;;;;19.00;16.67;12.80;58.70;;;;;;4860515;29;8817;-68
2021/10/09 05:15:03;;;;;;;;;15.00;15.00;13.00;58.40;;;;;;4858098;29;9553;-69
2021/10/09 05:17:29;;;;;;;;;14.33;14.33;12.70;58.30;;;;;;4863321;29;8832;-68
2021/10/09 05:19:55;;;;;;;;;13.67;13.67;12.70;58.50;;;;;;4863028;29;8840;-68
2021/10/09 05:22:21;;;;;;;;;16.67;16.67;12.80;58.50;;;;;;4863286;29;8817;-68
2021/10/09 05:24:50;;;;;;;;;13.67;13.67;12.90;58.40;;;;;;4863516;29;8824;-69
2021/10/09 05:27:16;;;;;;;;;17.00;17.00;12.90;58.40;;;;;;4863363;29;9497;-68
2021/10/09 05:29:42;;;;;;;;;19.50;19.50;13.30;58.90;;;;;;4863175;29;8814;-69
2021/10/09 05:32:08;;;;;;;;;19.00;19.00;13.20;58.00;;;;;;4863280;29;8817;-70
2021/10/09 05:34:34;;;;;;;;;18.00;18.00;13.50;58.00;;;;;;4863196;29;8821;-69
2021/10/09 05:37:01;;;;;;;;;13.33;13.33;13.60;57.50;;;;;;4863216;29;8887;-70
2021/10/09 05:39:27;;;;;;;;;11.00;11.00;13.40;56.90;;;;;;4862883;29;8897;-64
2021/10/09 05:41:53;;;;;;;;;9.00;9.00;13.50;57.10;;;;;;4863036;29;8797;-62
2021/10/09 05:44:19;;;;;;;;;17.00;17.00;13.50;57.00;;;;;;4863210;29;8782;-62
2021/10/09 05:46:45;;;;;;;;;14.33;14.33;13.40;57.10;;;;;;4863067;29;9492;-62
2021/10/09 05:49:12;;;;;;;;;13.00;13.00;13.40;57.90;;;;;;4862728;29;8857;-62
2021/10/09 05:52:30;;;;;;;;;17.00;17.00;13.20;57.20;;;;;;4862926;29;8789;-63
2021/10/09 05:57:36;;;;;;;;;17.33;16.33;13.50;57.00;;;;;;4842055;29;8857;-62
2021/10/09 06:59:49;;;;;;;;;78.00;63.00;13.70;56.60;;;;;;4861884;29;8769;-63
2021/10/09 07:02:15;;;;;;;;;77.50;62.00;13.70;56.60;;;;;;4861876;29;8881;-63
2021/10/09 07:04:41;;;;;;;;;69.75;56.50;13.70;57.10;;;;;;4855925;29;8792;-63
2021/10/09 07:07:08;;;;;;;;;82.50;74.75;13.70;57.10;;;;;;4855800;29;8852;-62
2021/10/09 07:09:34;;;;;;;;;76.25;63.25;13.80;56.60;;;;;;4848014;29;8834;-62
2021/10/09 07:12:00;;;;;;;;;58.00;49.00;13.90;56.70;;;;;;4844173;29;8824;-62
2021/10/09 07:14:26;;;;;;;;;60.00;50.75;13.80;56.50;;;;;;4854016;29;8837;-62
2021/10/09 07:16:52;;;;;;;;;69.00;57.00;14.10;56.70;;;;;;4857758;29;8893;-61
2021/10/09 07:19:18;;;;;;;;;75.75;62.50;14.00;56.10;;;;;;4857783;29;8809;-63
2021/10/09 07:21:44;;;;;;;;;97.25;93.00;13.90;56.70;;;;;;4864752;29;8811;-69
2021/10/09 07:24:10;;;;;;;;;83.75;77.00;13.90;57.30;;;;;;4848549;29;8828;-59
2021/10/09 07:26:35;;;;;;;;;76.50;63.75;14.00;57.50;;;;;;4864528;29;8975;-60
2021/10/09 07:29:01;;;;;;;;;73.25;60.00;14.00;57.30;;;;;;4863718;29;8805;-62
2021/10/09 07:31:27;;;;;;;;;70.00;58.00;13.70;57.10;;;;;;4847620;29;8844;-60
2021/10/09 07:33:53;;;;;;;;;64.50;53.50;13.90;57.20;;;;;;4845824;29;8804;-62
2021/10/09 07:36:19;;;;;;;;;104.50;101.50;14.30;57.00;;;;;;4845132;29;8808;-63
2021/10/09 07:38:45;;;;;;;;;108.50;105.75;14.20;56.70;;;;;;4846561;29;8931;-64
2021/10/09 07:41:11;;;;;;;;;119.75;115.00;14.30;56.20;;;;;;4848428;29;8840;-63
2021/10/09 07:43:37;;;;;;;;;89.50;77.75;14.30;56.60;;;;;;4848289;29;8845;-67
2021/10/09 07:46:03;;;;;;;;;73.50;60.25;14.30;56.60;;;;;;4846407;29;8832;-63
2021/10/09 07:48:29;;;;;;;;;76.25;62.25;14.20;56.70;;;;;;4847096;29;8796;-62
2021/10/09 07:50:56;;;;;;;;;64.25;52.75;14.30;57.20;;;;;;4864906;29;8825;-59
2021/10/09 07:53:23;;;;;;;;;54.50;45.00;14.40;56.40;;;;;;4864765;29;8820;-66
2021/10/09 07:55:49;;;;;;;;;49.75;42.75;14.60;56.40;;;;;;4864899;29;8805;-59
2021/10/09 07:58:14;;;;;;;;;42.50;38.75;14.70;55.90;;;;;;4864383;29;8877;-69
2021/10/09 08:00:40;;;;;;;;;35.50;34.50;14.40;55.80;;;;;;4864463;29;8820;-60
2021/10/09 08:03:06;;;;;;;;;45.75;40.25;14.20;56.20;;;;;;4864244;29;8819;-64
2021/10/09 08:05:34;;;;;;;;;59.50;50.75;14.10;57.40;;;;;;4864629;29;8789;-61
2021/10/09 08:08:03;;;;;;;;;56.75;48.75;14.10;57.30;;;;;;4864513;29;8921;-61
2021/10/09 08:10:29;;;;;;;;;43.50;39.75;14.30;57.80;;;;;;4864596;29;8789;-60
2021/10/09 08:12:55;;;;;;;;;45.50;39.25;14.30;57.40;;;;;;4864574;29;8789;-61
2021/10/09 08:15:21;;;;;;;;;63.50;53.00;14.40;56.20;;;;;;4864393;29;8920;-65
2021/10/09 08:17:47;;;;;;;;;55.50;47.75;14.30;57.00;;;;;;4864412;29;8801;-63
2021/10/09 08:20:13;;;;;;;;;47.25;40.50;14.10;56.50;;;;;;4864673;29;8801;-63
2021/10/09 08:22:44;;;;;;;;;58.75;50.00;14.10;57.30;;;;;;4864650;29;9510;-63
2021/10/09 08:40:58;;;;;;;;;71.25;58.00;14.30;56.80;;;;;;4863997;29;8801;-62
2021/10/09 08:43:24;;;;;;;;;70.75;57.00;14.20;58.10;;;;;;4864049;29;8884;-63
2021/10/09 08:45:50;;;;;;;;;60.00;50.75;14.10;57.30;;;;;;4864196;29;8804;-62
2021/10/09 08:48:17;;;;;;;;;58.25;49.25;14.30;57.40;;;;;;4863994;29;8798;-63
2021/10/09 08:50:44;;;;;;;;;56.75;48.75;14.30;56.90;;;;;;4863871;29;9492;-63
2021/10/09 08:53:11;;;;;;;;;49.00;43.50;14.20;57.40;;;;;;4863728;29;8801;-62
2021/10/09 08:55:45;;;;;;;;;59.50;50.00;14.40;56.60;;;;;;4863942;29;8837;-63
2021/10/09 08:58:34;;;;;;;;;67.50;56.00;14.20;57.10;;;;;;4863601;29;8865;-64
2021/10/09 09:01:13;;;;;;;;;65.50;53.50;14.20;57.20;;;;;;4863710;29;8805;-62
2021/10/09 09:07:11;;;;;;;;;49.00;42.00;14.50;56.80;;;;;;4863785;29;8940;-63
2021/10/09 09:31:55;;;;;;;;;25.00;25.00;14.70;56.90;;;;;;4861485;29;8795;-63
2021/10/09 09:40:08;;;;;;;;;30.75;30.75;14.30;58.00;;;;;;4863289;29;8754;-67
2021/10/09 09:42:45;;;;;;;;;25.00;25.00;14.40;58.40;;;;;;4851148;29;9491;-66
2021/10/09 09:45:18;;;;;;;;;35.00;34.00;14.30;57.90;;;;;;4844238;29;8799;-63
2021/10/09 09:47:44;;;;;;;;;32.33;32.33;14.40;58.50;;;;;;4844341;29;9451;-60
2021/10/09 09:50:12;;;;;;;;;33.75;33.75;14.50;58.00;;;;;;4849970;29;8816;-60
2021/10/09 09:52:43;;;;;;;;;33.00;33.00;14.50;57.70;;;;;;4850542;29;8803;-62
2021/10/09 09:55:11;;;;;;;;;30.00;30.00;14.60;57.60;;;;;;4848628;29;8801;-60
2021/10/09 09:57:38;;;;;;;;;26.00;26.00;14.60;57.90;;;;;;4862400;29;8873;-63
2021/10/09 10:00:07;;;;;;;;;25.00;25.00;14.80;57.80;;;;;;4862627;29;9587;-62
2021/10/09 10:02:38;;;;;;;;;25.67;25.67;14.70;57.10;;;;;;4862831;29;8797;-63
2021/10/09 10:05:04;;;;;;;;;19.00;19.00;14.50;57.60;;;;;;4862623;29;8812;-63
2021/10/09 10:07:33;;;;;;;;;29.33;29.33;14.40;57.90;;;;;;4862356;29;8939;-64
2021/10/09 10:09:59;;;;;;;;;24.00;24.00;14.60;58.00;;;;;;4862463;29;8921;-64
2021/10/09 10:12:26;;;;;;;;;27.00;27.00;14.60;57.60;;;;;;4862439;29;8924;-65
2021/10/09 10:14:52;;;;;;;;;29.00;28.00;14.60;57.70;;;;;;4862403;29;8845;-61
2021/10/09 10:17:44;;;;;;;;;26.67;26.67;14.50;57.90;;;;;;4862461;29;8808;-62
2021/10/09 10:20:12;;;;;;;;;23.00;21.00;14.50;58.40;;;;;;4862445;29;9527;-62
2021/10/09 10:22:39;;;;;;;;;21.00;21.00;14.50;58.00;;;;;;4862444;29;8818;-64
2021/10/09 10:25:23;;;;;;;;;29.00;29.00;14.90;58.00;;;;;;4862226;29;8793;-64
2021/10/09 10:28:05;;;;;;;;;26.33;26.33;15.00;57.50;;;;;;4862035;29;8875;-64
2021/10/09 10:30:32;;;;;;;;;24.00;24.00;14.90;57.30;;;;;;4862166;29;8773;-62
2021/10/09 10:32:59;;;;;;;;;24.67;24.67;14.70;57.70;;;;;;4862241;29;8785;-63
2021/10/09 10:35:30;;;;;;;;;24.00;24.00;14.60;57.70;;;;;;4862288;29;8873;-65
2021/10/09 10:38:32;;;;;;;;;31.25;31.25;14.50;58.40;;;;;;4861994;29;8886;-63
2021/10/09 10:41:01;;;;;;;;;26.33;26.33;14.60;58.80;;;;;;4862054;29;8774;-64
2021/10/09 10:54:36;;;;;;;;;22.67;22.67;14.60;57.10;;;;;;4862034;29;8774;-62
2021/10/09 10:57:02;;;;;;;;;29.67;29.67;14.70;57.80;;;;;;4861693;29;8871;-62
2021/10/09 10:59:44;;;;;;;;;24.33;24.33;14.70;57.70;;;;;;4862161;29;8789;-62
2021/10/09 11:02:12;;;;;;;;;23.33;23.33;14.30;58.10;;;;;;4862094;29;8793;-64
2021/10/09 11:04:40;;;;;;;;;23.00;23.00;14.60;58.30;;;;;;4861562;29;8892;-63
2021/10/09 11:07:07;;;;;;;;;22.67;22.67;14.60;58.20;;;;;;4861306;29;8876;-64
2021/10/09 11:09:38;;;;;;;;;27.00;26.33;14.60;58.70;;;;;;4861444;29;8785;-62
2021/10/09 11:12:17;;;;;;;;;27.67;27.67;14.90;57.80;;;;;;4861738;29;8916;-64
2021/10/09 11:14:43;;;;;;;;;26.67;26.67;15.00;57.40;;;;;;4861573;29;8857;-61
2021/10/09 11:17:08;;;;;;;;;27.33;27.33;15.00;57.20;;;;;;4861813;29;8806;-62
2021/10/09 11:19:50;;;;;;;;;44.25;40.25;14.80;58.70;;;;;;4861399;29;8832;-60
2021/10/09 11:22:18;;;;;;;;;29.00;29.00;14.80;57.50;;;;;;4861621;29;8893;-62
2021/10/09 11:24:52;;;;;;;;;35.00;33.50;14.70;57.40;;;;;;4861858;29;9510;-62
2021/10/09 11:27:20;;;;;;;;;26.67;26.67;14.90;57.80;;;;;;4861824;29;8964;-65
2021/10/09 11:30:08;;;;;;;;;29.67;29.67;15.00;57.50;;;;;;4861679;29;8794;-63
2021/10/09 11:32:36;;;;;;;;;35.50;34.00;14.90;56.80;;;;;;4861879;29;8801;-61
2021/10/09 11:35:04;;;;;;;;;33.75;33.25;14.90;57.80;;;;;;4861646;29;9048;-61
2021/10/09 11:37:31;;;;;;;;;29.00;29.00;14.70;57.80;;;;;;4861609;29;8821;-61
2021/10/09 11:40:00;;;;;;;;;49.75;42.75;14.90;57.90;;;;;;4861683;29;8923;-61
2021/10/09 11:42:38;;;;;;;;;73.00;60.50;14.70;58.10;;;;;;4861333;29;8817;-61
2021/10/09 11:56:07;;;;;;;;;30.50;30.50;14.40;59.60;;;;;;4861419;29;8762;-62
2021/10/09 11:59:05;;;;;;;;;36.75;35.75;14.50;59.20;;;;;;4861607;29;8860;-60
2021/10/09 12:01:40;;;;;;;;;36.75;35.00;14.60;59.10;;;;;;4856172;29;8831;-61
2021/10/09 12:04:17;;;;;;;;;55.75;46.75;14.70;57.90;;;;;;4864359;29;8802;-61
2021/10/09 12:06:48;;;;;;;;;69.00;56.00;14.60;57.60;;;;;;4864321;29;8880;-61
2021/10/09 12:09:30;;;;;;;;;52.50;44.25;14.70;58.00;;;;;;4864694;29;8824;-62
2021/10/09 12:12:10;;;;;;;;;62.25;52.00;14.60;58.50;;;;;;4864689;29;9472;-61
2021/10/09 12:14:36;;;;;;;;;64.75;53.75;14.50;58.60;;;;;;4864354;29;8876;-62
2021/10/09 12:17:02;;;;;;;;;65.50;54.00;14.50;58.60;;;;;;4864506;29;8806;-61
2021/10/09 12:19:29;;;;;;;;;78.00;64.75;14.60;58.50;;;;;;4864241;29;8786;-59
2021/10/09 12:22:01;;;;;;;;;69.25;56.75;14.60;58.40;;;;;;4864329;29;8801;-62
2021/10/09 12:24:31;;;;;;;;;72.75;59.00;14.70;58.50;;;;;;4864535;29;9512;-60
2021/10/09 12:27:04;;;;;;;;;67.50;54.75;14.60;58.80;;;;;;4863251;29;8891;-66
2021/10/09 12:29:35;;;;;;;;;53.75;45.25;14.80;58.70;;;;;;4864143;29;8873;-62
2021/10/09 12:32:42;;;;;;;;;54.50;46.50;15.00;58.30;;;;;;4864107;29;9470;-62
2021/10/09 12:35:17;;;;;;;;;61.25;51.50;15.00;57.90;;;;;;4845205;29;8824;-62
2021/10/09 12:38:09;;;;;;;;;55.00;45.75;15.00;58.60;;;;;;4864067;29;8825;-64
2021/10/09 12:40:42;;;;;;;;;29.33;29.33;15.10;58.00;;;;;;4864137;29;8786;-63
2021/10/09 12:43:15;;;;;;;;;27.33;27.33;14.80;58.00;;;;;;4864251;29;8921;-63
2021/10/09 12:45:41;;;;;;;;;27.50;27.50;14.60;58.50;;;;;;4863945;29;8805;-63
2021/10/09 12:48:07;;;;;;;;;49.50;42.75;14.80;59.10;;;;;;4864053;29;8915;-61
2021/10/09 12:50:36;;;;;;;;;52.50;44.50;15.00;58.60;;;;;;4863729;29;8804;-62
2021/10/09 12:53:02;;;;;;;;;42.50;38.50;15.00;58.50;;;;;;4863665;29;8869;-65
2021/10/09 12:55:33;;;;;;;;;51.25;44.00;15.00;58.40;;;;;;4863967;29;8818;-65
2021/10/09 12:58:04;;;;;;;;;51.25;44.50;15.00;58.50;;;;;;4863504;29;8960;-64
2021/10/09 13:00:32;;;;;;;;;44.00;40.00;15.10;58.70;;;;;;4854547;29;8812;-64
2021/10/09 13:02:59;;;;;;;;;24.67;24.67;15.00;58.60;;;;;;4857958;29;8847;-63
2021/10/09 13:05:27;;;;;;;;;59.75;49.75;14.50;59.50;;;;;;4857335;29;8822;-65
2021/10/09 13:07:55;;;;;;;;;71.00;57.25;14.50;60.10;;;;;;4855093;29;8919;-64
2021/10/09 13:10:22;;;;;;;;;69.25;55.50;14.60;60.10;;;;;;4850117;29;9590;-64
2021/10/09 13:12:48;;;;;;;;;44.50;39.50;14.50;60.30;;;;;;4852854;29;8827;-66
2021/10/09 13:15:18;;;;;;;;;36.00;33.50;14.70;60.10;;;;;;4863459;29;8808;-66
2021/10/09 13:17:45;;;;;;;;;27.00;27.00;14.50;60.00;;;;;;4863329;29;8907;-64
2021/10/09 13:20:12;;;;;;;;;33.00;32.50;14.60;60.30;;;;;;4862714;29;8786;-65
2021/10/09 13:22:39;;;;;;;;;31.00;31.00;14.50;60.50;;;;;;4862493;29;8807;-63
2021/10/09 13:25:05;;;;;;;;;49.00;42.00;14.70;60.40;;;;;;4851780;29;8793;-64
2021/10/09 13:27:31;;;;;;;;;45.50;40.25;14.70;60.50;;;;;;4846679;29;8860;-64
2021/10/09 13:29:58;;;;;;;;;46.00;41.00;14.90;59.80;;;;;;4848106;29;8846;-65
2021/10/09 13:32:25;;;;;;;;;43.00;39.25;14.80;60.10;;;;;;4852368;29;8817;-66
2021/10/09 13:34:51;;;;;;;;;38.50;36.50;14.90;60.10;;;;;;4853516;29;9491;-65
2021/10/09 13:37:21;;;;;;;;;56.75;48.50;14.90;59.90;;;;;;4854294;29;8840;-65
2021/10/09 13:39:53;;;;;;;;;39.00;37.50;14.90;60.20;;;;;;4857217;29;8889;-65
2021/10/09 13:42:19;;;;;;;;;42.75;39.75;15.00;59.90;;;;;;4852841;29;8842;-65
2021/10/09 13:44:45;;;;;;;;;45.50;40.50;15.00;59.50;;;;;;4853333;29;8821;-65
2021/10/09 13:47:11;;;;;;;;;30.00;30.00;14.90;60.00;;;;;;4852994;29;9505;-66
2021/10/09 13:49:38;;;;;;;;;37.75;36.25;14.90;60.00;;;;;;4852781;29;8806;-66
2021/10/09 13:52:04;;;;;;;;;45.25;40.25;14.80;60.30;;;;;;4851784;29;8814;-68
2021/10/09 13:54:30;;;;;;;;;33.00;33.00;14.80;60.70;;;;;;4853851;29;8793;-65
2021/10/09 13:56:56;;;;;;;;;30.50;30.50;15.00;60.20;;;;;;4848930;29;8849;-65
2021/10/09 13:59:22;;;;;;;;;30.33;30.33;15.00;59.80;;;;;;4859078;29;8805;-67
2021/10/09 14:01:48;;;;;;;;;25.00;25.00;14.80;60.30;;;;;;4859966;29;8928;-65
2021/10/09 14:04:14;;;;;;;;;32.67;31.00;14.80;60.10;;;;;;4848109;29;8811;-67
2021/10/09 14:06:40;;;;;;;;;40.50;37.25;15.00;60.00;;;;;;4859597;29;8884;-66
2021/10/09 14:09:07;;;;;;;;;34.00;34.00;15.00;59.80;;;;;;4854070;29;8837;-66
2021/10/09 14:11:35;;;;;;;;;39.00;37.00;15.10;59.60;;;;;;4862780;29;8834;-66
2021/10/09 14:14:01;;;;;;;;;35.75;35.00;15.20;59.00;;;;;;4861828;29;8798;-66
2021/10/09 14:16:27;;;;;;;;;30.00;30.00;15.10;59.80;;;;;;4849725;29;8891;-66
2021/10/09 14:18:53;;;;;;;;;33.25;33.25;14.90;59.60;;;;;;4854804;29;8828;-64
2021/10/09 14:21:20;;;;;;;;;30.00;29.00;14.90;60.30;;;;;;4861074;29;8873;-66
2021/10/09 14:23:45;;;;;;;;;94.50;90.50;14.80;60.00;;;;;;4860269;29;8860;-66
2021/10/09 14:26:11;;;;;;;;;65.25;54.25;14.70;60.80;;;;;;4858825;29;8896;-66
2021/10/09 14:28:37;;;;;;;;;73.25;60.50;14.60;60.60;;;;;;4861132;29;8821;-64
2021/10/09 14:31:03;;;;;;;;;77.00;64.50;14.80;60.40;;;;;;4860543;29;8900;-67
2021/10/09 14:33:29;;;;;;;;;68.25;56.50;14.70;61.30;;;;;;4861401;29;8793;-66
2021/10/09 14:35:55;;;;;;;;;72.50;59.25;14.70;60.60;;;;;;4843950;29;8815;-66
2021/10/09 14:38:21;;;;;;;;;66.75;55.00;14.70;60.70;;;;;;4843706;29;8792;-65
2021/10/09 14:40:47;;;;;;;;;49.25;42.25;14.70;61.00;;;;;;4843895;29;8883;-65
2021/10/09 14:43:14;;;;;;;;;26.67;26.67;14.70;60.50;;;;;;4859396;29;8805;-68
2021/10/09 14:45:42;;;;;;;;;27.00;27.00;14.50;60.50;;;;;;4862253;29;8774;-67
2021/10/09 14:48:18;;;;;;;;;26.67;26.67;14.60;60.80;;;;;;4861912;29;8840;-67
2021/10/09 14:56:17;;;;;;;;;32.75;32.75;14.30;60.90;;;;;;4857089;29;8980;-68
2021/10/09 15:20:28;;;;;;;;;27.00;27.00;14.70;60.30;;;;;;4858173;29;8809;-66
2021/10/09 15:22:53;;;;;;;;;21.00;21.00;14.70;59.90;;;;;;4861850;29;9527;-67
2021/10/09 15:25:19;;;;;;;;;20.33;20.33;14.60;59.90;;;;;;4861876;29;8790;-66
2021/10/09 15:27:45;;;;;;;;;23.67;23.67;14.70;60.10;;;;;;4861346;29;9597;-68
2021/10/09 15:30:11;;;;;;;;;26.33;26.33;14.70;60.00;;;;;;4861707;29;8802;-70